METAR Data
IDs: Format: Raw Decoded Include TAF

Data at: 1654 UTC 18 Feb 2019

METAR for:KOOA (Oskaloosa Muni, IA, US)
Text:KOOA 181635Z AUTO 33008KT 10SM CLR M08/M10 A3042 RMK AO2 T10811105
Temperature: -8.1°C ( 17°F)
Dewpoint:-10.5°C ( 13°F) [RH = 83%]
Pressure (altimeter):30.42 inches Hg (1030.2 mb)
Winds:from the NNW (330 degrees) at 9 MPH (8 knots; 4.1 m/s)
Visibility:10 or more sm (16+ km)
Ceiling:at least 12,000 feet AGL
Clouds:sky clear below 12,000 feet AGL
QC Flag:automated observation with no human augmentation